sensor_id;sensor_type;location;lat;lon;timestamp;pressure;altitude;pressure_sealevel;temperature;humidity
30618;BME280;17384;51.214;9.202;2024-01-16T00:01:45;97582.13;;;-0.79;93.33
30618;BME280;17384;51.214;9.202;2024-01-16T00:04:11;97585.97;;;-0.82;93.45
30618;BME280;17384;51.214;9.202;2024-01-16T00:06:40;97597.16;;;-0.86;94.78
30618;BME280;17384;51.214;9.202;2024-01-16T00:09:06;97595.00;;;-0.91;95.99
30618;BME280;17384;51.214;9.202;2024-01-16T00:11:32;97614.47;;;-0.90;97.00
30618;BME280;17384;51.214;9.202;2024-01-16T00:13:57;97602.34;;;-1.01;97.89
30618;BME280;17384;51.214;9.202;2024-01-16T00:16:23;97611.13;;;-0.84;98.10
30618;BME280;17384;51.214;9.202;2024-01-16T00:18:48;97615.78;;;-0.86;98.60
30618;BME280;17384;51.214;9.202;2024-01-16T00:21:14;97622.78;;;-0.85;99.32
30618;BME280;17384;51.214;9.202;2024-01-16T00:23:40;97615.13;;;-0.88;99.53
30618;BME280;17384;51.214;9.202;2024-01-16T00:26:05;97615.84;;;-1.03;99.87
30618;BME280;17384;51.214;9.202;2024-01-16T00:28:31;97627.34;;;-1.10;100.00
30618;BME280;17384;51.214;9.202;2024-01-16T00:30:57;97642.50;;;-1.19;100.00
30618;BME280;17384;51.214;9.202;2024-01-16T00:33:23;97641.19;;;-1.23;100.00
30618;BME280;17384;51.214;9.202;2024-01-16T00:35:48;97641.19;;;-1.23;100.00
30618;BME280;17384;51.214;9.202;2024-01-16T00:38:14;97629.53;;;-1.22;100.00
30618;BME280;17384;51.214;9.202;2024-01-16T00:40:39;97639.84;;;-1.19;100.00
30618;BME280;17384;51.214;9.202;2024-01-16T00:43:04;97626.88;;;-1.22;100.00
30618;BME280;17384;51.214;9.202;2024-01-16T00:45:30;97637.53;;;-1.30;100.00
30618;BME280;17384;51.214;9.202;2024-01-16T00:47:55;97635.88;;;-1.31;100.00
30618;BME280;17384;51.214;9.202;2024-01-16T00:50:21;97638.53;;;-1.23;100.00
30618;BME280;17384;51.214;9.202;2024-01-16T00:52:47;97634.19;;;-1.16;100.00
30618;BME280;17384;51.214;9.202;2024-01-16T00:55:12;97646.00;;;-1.18;100.00
30618;BME280;17384;51.214;9.202;2024-01-16T00:57:38;97646.34;;;-1.29;100.00
30618;BME280;17384;51.214;9.202;2024-01-16T01:00:04;97642.03;;;-1.30;100.00
30618;BME280;17384;51.214;9.202;2024-01-16T01:02:30;97649.69;;;-1.36;100.00
30618;BME280;17384;51.214;9.202;2024-01-16T01:04:55;97649.03;;;-1.38;99.71
30618;BME280;17384;51.214;9.202;2024-01-16T01:07:21;97654.16;;;-1.36;99.44
30618;BME280;17384;51.214;9.202;2024-01-16T01:09:47;97645.56;;;-1.54;99.12
30618;BME280;17384;51.214;9.202;2024-01-16T01:12:12;97656.19;;;-1.54;98.80
30618;BME280;17384;51.214;9.202;2024-01-16T01:14:38;97643.59;;;-1.68;98.22
30618;BME280;17384;51.214;9.202;2024-01-16T01:17:04;97662.50;;;-1.80;97.86
30618;BME280;17384;51.214;9.202;2024-01-16T01:19:29;97661.88;;;-1.65;96.94
30618;BME280;17384;51.214;9.202;2024-01-16T01:21:55;97651.41;;;-1.67;96.25
30618;BME280;17384;51.214;9.202;2024-01-16T01:24:21;97662.50;;;-1.63;95.48
30618;BME280;17384;51.214;9.202;2024-01-16T01:26:46;97662.19;;;-1.68;94.76
30618;BME280;17384;51.214;9.202;2024-01-16T01:29:12;97658.50;;;-1.59;93.81
30618;BME280;17384;51.214;9.202;2024-01-16T01:31:37;97657.72;;;-1.68;93.19
30618;BME280;17384;51.214;9.202;2024-01-16T01:34:03;97666.16;;;-1.81;92.82
30618;BME280;17384;51.214;9.202;2024-01-16T01:36:29;97675.31;;;-1.83;92.69
30618;BME280;17384;51.214;9.202;2024-01-16T01:38:55;97673.66;;;-1.76;92.57
30618;BME280;17384;51.214;9.202;2024-01-16T01:41:20;97690.78;;;-1.71;92.62
30618;BME280;17384;51.214;9.202;2024-01-16T01:43:46;97691.13;;;-1.65;92.72
30618;BME280;17384;51.214;9.202;2024-01-16T01:46:18;97695.25;;;-1.63;92.37
30618;BME280;17384;51.214;9.202;2024-01-16T01:48:46;97696.75;;;-1.60;92.07
30618;BME280;17384;51.214;9.202;2024-01-16T01:51:14;97692.75;;;-1.48;91.32
30618;BME280;17384;51.214;9.202;2024-01-16T01:53:42;97701.41;;;-1.46;90.27
30618;BME280;17384;51.214;9.202;2024-01-16T01:56:14;97696.09;;;-1.46;90.00
30618;BME280;17384;51.214;9.202;2024-01-16T01:58:43;97709.88;;;-1.43;89.60
30618;BME280;17384;51.214;9.202;2024-01-16T02:01:10;97705.06;;;-1.39;89.09
30618;BME280;17384;51.214;9.202;2024-01-16T02:03:42;97695.75;;;-1.43;88.73
30618;BME280;17384;51.214;9.202;2024-01-16T02:06:09;97703.22;;;-1.30;88.20
30618;BME280;17384;51.214;9.202;2024-01-16T02:08:35;97712.22;;;-1.40;88.06
30618;BME280;17384;51.214;9.202;2024-01-16T02:11:00;97716.38;;;-1.37;88.25
30618;BME280;17384;51.214;9.202;2024-01-16T02:13:26;97709.22;;;-1.45;88.26
30618;BME280;17384;51.214;9.202;2024-01-16T02:15:51;97708.88;;;-1.50;88.06
30618;BME280;17384;51.214;9.202;2024-01-16T02:18:17;97716.69;;;-1.48;88.03
30618;BME280;17384;51.214;9.202;2024-01-16T02:20:43;97720.69;;;-1.52;88.03
30618;BME280;17384;51.214;9.202;2024-01-16T02:23:10;97723.66;;;-1.55;88.03
30618;BME280;17384;51.214;9.202;2024-01-16T02:25:38;97729.50;;;-1.52;87.40
30618;BME280;17384;51.214;9.202;2024-01-16T02:28:04;97709.03;;;-1.59;87.64
30618;BME280;17384;51.214;9.202;2024-01-16T02:30:30;97725.00;;;-1.59;87.36
30618;BME280;17384;51.214;9.202;2024-01-16T02:32:56;97716.53;;;-1.55;87.11
30618;BME280;17384;51.214;9.202;2024-01-16T02:35:21;97726.97;;;-1.61;86.97
30618;BME280;17384;51.214;9.202;2024-01-16T02:37:46;97729.66;;;-1.53;87.18
30618;BME280;17384;51.214;9.202;2024-01-16T02:40:12;97723.84;;;-1.49;88.00
30618;BME280;17384;51.214;9.202;2024-01-16T02:42:38;97733.31;;;-1.54;88.52
30618;BME280;17384;51.214;9.202;2024-01-16T02:45:05;97728.16;;;-1.48;89.39
30618;BME280;17384;51.214;9.202;2024-01-16T02:47:31;97731.97;;;-1.50;90.05
30618;BME280;17384;51.214;9.202;2024-01-16T02:49:56;97730.81;;;-1.48;90.16
30618;BME280;17384;51.214;9.202;2024-01-16T02:52:22;97730.50;;;-1.45;90.33
30618;BME280;17384;51.214;9.202;2024-01-16T02:54:48;97735.31;;;-1.48;91.02
30618;BME280;17384;51.214;9.202;2024-01-16T02:57:13;97732.16;;;-1.52;91.48
30618;BME280;17384;51.214;9.202;2024-01-16T02:59:39;97737.63;;;-1.53;91.61
30618;BME280;17384;51.214;9.202;2024-01-16T03:02:04;97734.97;;;-1.45;91.68
30618;BME280;17384;51.214;9.202;2024-01-16T03:04:29;97732.81;;;-1.50;91.67
30618;BME280;17384;51.214;9.202;2024-01-16T03:06:55;97747.75;;;-1.57;91.64
30618;BME280;17384;51.214;9.202;2024-01-16T03:09:21;97744.94;;;-1.47;91.88
30618;BME280;17384;51.214;9.202;2024-01-16T03:11:46;97741.63;;;-1.33;91.65
30618;BME280;17384;51.214;9.202;2024-01-16T03:14:12;97750.75;;;-1.36;91.28
30618;BME280;17384;51.214;9.202;2024-01-16T03:16:39;97750.75;;;-1.36;91.02
30618;BME280;17384;51.214;9.202;2024-01-16T03:19:04;97747.28;;;-1.28;90.82
30618;BME280;17384;51.214;9.202;2024-01-16T03:21:30;97762.91;;;-1.25;90.03
30618;BME280;17384;51.214;9.202;2024-01-16T03:23:56;97757.25;;;-1.14;89.33
30618;BME280;17384;51.214;9.202;2024-01-16T03:26:21;97755.09;;;-1.26;88.65
30618;BME280;17384;51.214;9.202;2024-01-16T03:28:47;97757.41;;;-1.31;89.27
30618;BME280;17384;51.214;9.202;2024-01-16T03:31:13;97758.25;;;-1.31;89.50
30618;BME280;17384;51.214;9.202;2024-01-16T03:33:39;97764.06;;;-1.27;89.44
30618;BME280;17384;51.214;9.202;2024-01-16T03:36:07;97766.91;;;-1.13;89.53
30618;BME280;17384;51.214;9.202;2024-01-16T03:38:35;97770.22;;;-1.11;89.26
30618;BME280;17384;51.214;9.202;2024-01-16T03:41:02;97762.53;;;-1.06;88.50
30618;BME280;17384;51.214;9.202;2024-01-16T03:43:29;97773.53;;;-0.92;87.91
30618;BME280;17384;51.214;9.202;2024-01-16T03:45:57;97769.19;;;-1.02;88.10
30618;BME280;17384;51.214;9.202;2024-01-16T03:48:23;97770.53;;;-1.06;88.29
30618;BME280;17384;51.214;9.202;2024-01-16T03:50:48;97778.38;;;-1.12;88.60
30618;BME280;17384;51.214;9.202;2024-01-16T03:53:14;97787.19;;;-1.20;88.92
30618;BME280;17384;51.214;9.202;2024-01-16T03:55:39;97776.06;;;-1.15;89.00
30618;BME280;17384;51.214;9.202;2024-01-16T03:58:05;97785.53;;;-1.13;89.15
30618;BME280;17384;51.214;9.202;2024-01-16T04:00:30;97773.88;;;-1.12;89.01
30618;BME280;17384;51.214;9.202;2024-01-16T04:02:56;97782.84;;;-1.05;88.91
30618;BME280;17384;51.214;9.202;2024-01-16T04:05:21;97776.81;;;-0.74;87.35
30618;BME280;17384;51.214;9.202;2024-01-16T04:07:47;97768.19;;;-0.84;86.84
30618;BME280;17384;51.214;9.202;2024-01-16T04:10:12;97775.03;;;-0.90;87.00
30618;BME280;17384;51.214;9.202;2024-01-16T04:12:37;97770.16;;;-0.78;86.32
30618;BME280;17384;51.214;9.202;2024-01-16T04:15:03;97770.88;;;-0.84;86.24
30618;BME280;17384;51.214;9.202;2024-01-16T04:17:29;97773.66;;;-0.78;86.04
30618;BME280;17384;51.214;9.202;2024-01-16T04:19:55;97787.00;;;-0.86;86.07
30618;BME280;17384;51.214;9.202;2024-01-16T04:22:20;97785.34;;;-0.95;86.59
30618;BME280;17384;51.214;9.202;2024-01-16T04:24:46;97784.19;;;-1.00;87.34
30618;BME280;17384;51.214;9.202;2024-01-16T04:27:13;97784.00;;;-0.99;87.73
30618;BME280;17384;51.214;9.202;2024-01-16T04:29:38;97782.84;;;-1.05;88.13
30618;BME280;17384;51.214;9.202;2024-01-16T04:32:04;97775.19;;;-1.08;88.18
30618;BME280;17384;51.214;9.202;2024-01-16T04:34:30;97783.50;;;-1.03;88.13
30618;BME280;17384;51.214;9.202;2024-01-16T04:36:55;97778.69;;;-0.99;87.74
30618;BME280;17384;51.214;9.202;2024-01-16T04:39:21;97774.69;;;-1.03;87.86
30618;BME280;17384;51.214;9.202;2024-01-16T04:41:51;97784.84;;;-0.98;87.90
30618;BME280;17384;51.214;9.202;2024-01-16T04:44:16;97784.34;;;-1.02;87.96
30618;BME280;17384;51.214;9.202;2024-01-16T04:46:42;97780.34;;;-0.98;88.08
30618;BME280;17384;51.214;9.202;2024-01-16T04:49:08;97775.56;;;-1.11;88.56
30618;BME280;17384;51.214;9.202;2024-01-16T04:51:34;97793.16;;;-1.02;88.54
30618;BME280;17384;51.214;9.202;2024-01-16T04:53:59;97792.19;;;-1.17;89.17
30618;BME280;17384;51.214;9.202;2024-01-16T04:56:25;97789.00;;;-1.20;89.80
30618;BME280;17384;51.214;9.202;2024-01-16T04:58:51;97790.19;;;-1.15;89.92
30618;BME280;17384;51.214;9.202;2024-01-16T05:01:17;97795.50;;;-0.90;89.24
30618;BME280;17384;51.214;9.202;2024-01-16T05:03:43;97794.66;;;-0.83;88.25
30618;BME280;17384;51.214;9.202;2024-01-16T05:06:13;97797.00;;;-0.88;88.21
30618;BME280;17384;51.214;9.202;2024-01-16T05:08:42;97796.16;;;-0.96;88.80
30618;BME280;17384;51.214;9.202;2024-01-16T05:11:09;97788.50;;;-0.99;88.96
30618;BME280;17384;51.214;9.202;2024-01-16T05:13:35;97790.66;;;-1.03;89.20
30618;BME280;17384;51.214;9.202;2024-01-16T05:16:00;97798.66;;;-1.03;89.16
30618;BME280;17384;51.214;9.202;2024-01-16T05:18:26;97794.50;;;-1.06;89.64
30618;BME280;17384;51.214;9.202;2024-01-16T05:20:51;97787.88;;;-1.10;89.73
30618;BME280;17384;51.214;9.202;2024-01-16T05:23:17;97798.16;;;-1.07;89.63
30618;BME280;17384;51.214;9.202;2024-01-16T05:25:43;97795.00;;;-1.10;90.00
30618;BME280;17384;51.214;9.202;2024-01-16T05:28:09;97784.03;;;-1.15;90.01
30618;BME280;17384;51.214;9.202;2024-01-16T05:30:34;97784.19;;;-1.17;89.89
30618;BME280;17384;51.214;9.202;2024-01-16T05:33:00;97782.19;;;-1.15;89.52
30618;BME280;17384;51.214;9.202;2024-01-16T05:35:28;97779.53;;;-1.15;89.28
30618;BME280;17384;51.214;9.202;2024-01-16T05:37:54;97783.34;;;-1.09;88.59
30618;BME280;17384;51.214;9.202;2024-01-16T05:40:21;97772.53;;;-1.08;88.43
30618;BME280;17384;51.214;9.202;2024-01-16T05:42:48;97775.34;;;-1.09;88.03
30618;BME280;17384;51.214;9.202;2024-01-16T05:45:13;97767.88;;;-1.06;87.98
30618;BME280;17384;51.214;9.202;2024-01-16T05:47:39;97783.00;;;-1.06;87.67
30618;BME280;17384;51.214;9.202;2024-01-16T05:50:05;97775.56;;;-1.11;87.68
30618;BME280;17384;51.214;9.202;2024-01-16T05:52:30;97772.19;;;-1.05;87.52
30618;BME280;17384;51.214;9.202;2024-01-16T05:54:56;97776.53;;;-1.04;87.44
30618;BME280;17384;51.214;9.202;2024-01-16T05:57:23;97764.22;;;-1.05;86.72
30618;BME280;17384;51.214;9.202;2024-01-16T05:59:49;97763.88;;;-1.02;86.48
30618;BME280;17384;51.214;9.202;2024-01-16T06:02:14;97759.59;;;-1.11;86.39
30618;BME280;17384;51.214;9.202;2024-01-16T06:04:40;97768.19;;;-1.00;86.28
30618;BME280;17384;51.214;9.202;2024-01-16T06:07:05;97768.94;;;-0.51;90.44
30618;BME280;17384;51.214;9.202;2024-01-16T06:09:38;97799.06;;;0.27;93.87
30618;BME280;17384;51.214;9.202;2024-01-16T06:12:05;97788.31;;;-0.18;84.73
30618;BME280;17384;51.214;9.202;2024-01-16T06:14:32;97771.31;;;0.14;88.10
30618;BME280;17384;51.214;9.202;2024-01-16T06:16:58;97772.50;;;0.11;86.73
30618;BME280;17384;51.214;9.202;2024-01-16T06:19:23;97769.34;;;0.08;83.54
30618;BME280;17384;51.214;9.202;2024-01-16T06:21:49;97771.00;;;0.09;85.02
30618;BME280;17384;51.214;9.202;2024-01-16T06:24:14;97779.13;;;0.23;82.13
30618;BME280;17384;51.214;9.202;2024-01-16T06:26:40;97774.97;;;0.44;83.61
30618;BME280;17384;51.214;9.202;2024-01-16T06:29:05;97777.50;;;0.14;80.59
30618;BME280;17384;51.214;9.202;2024-01-16T06:31:31;97775.53;;;-0.31;81.40
30618;BME280;17384;51.214;9.202;2024-01-16T06:33:56;97773.13;;;-0.57;82.57
30618;BME280;17384;51.214;9.202;2024-01-16T06:36:22;97770.75;;;-0.52;84.11
30618;BME280;17384;51.214;9.202;2024-01-16T06:38:47;97782.13;;;-0.66;83.79
30618;BME280;17384;51.214;9.202;2024-01-16T06:41:13;97768.81;;;-0.66;83.68
30618;BME280;17384;51.214;9.202;2024-01-16T06:43:38;97781.16;;;-0.81;84.22
30618;BME280;17384;51.214;9.202;2024-01-16T06:46:04;97794.16;;;-0.94;84.92
30618;BME280;17384;51.214;9.202;2024-01-16T06:48:30;97789.84;;;-0.95;85.62
30618;BME280;17384;51.214;9.202;2024-01-16T06:50:56;97778.69;;;-0.99;86.25
30618;BME280;17384;51.214;9.202;2024-01-16T06:53:22;97781.19;;;-0.97;86.29
30618;BME280;17384;51.214;9.202;2024-01-16T06:55:48;97765.88;;;-1.04;86.36
30618;BME280;17384;51.214;9.202;2024-01-16T06:58:13;97769.88;;;-1.08;86.93
30618;BME280;17384;51.214;9.202;2024-01-16T07:00:39;97772.19;;;-1.05;87.52
30618;BME280;17384;51.214;9.202;2024-01-16T07:03:07;97770.03;;;-1.01;87.33
30618;BME280;17384;51.214;9.202;2024-01-16T07:05:32;97779.19;;;-1.04;87.66
30618;BME280;17384;51.214;9.202;2024-01-16T07:07:58;97775.69;;;-1.04;87.71
30618;BME280;17384;51.214;9.202;2024-01-16T07:10:24;97787.66;;;-1.08;87.51
30618;BME280;17384;51.214;9.202;2024-01-16T07:12:49;97785.50;;;-0.96;87.65
30618;BME280;17384;51.214;9.202;2024-01-16T07:15:17;97790.00;;;-0.97;87.06
30618;BME280;17384;51.214;9.202;2024-01-16T07:17:43;97779.50;;;-0.98;87.29
30618;BME280;17384;51.214;9.202;2024-01-16T07:20:09;97777.22;;;-1.10;87.67
30618;BME280;17384;51.214;9.202;2024-01-16T07:22:37;97788.19;;;-1.13;87.77
30618;BME280;17384;51.214;9.202;2024-01-16T07:25:06;97783.69;;;-1.20;88.36
30618;BME280;17384;51.214;9.202;2024-01-16T07:27:32;97785.19;;;-1.26;88.61
30618;BME280;17384;51.214;9.202;2024-01-16T07:29:57;97801.47;;;-1.29;89.14
30618;BME280;17384;51.214;9.202;2024-01-16T07:32:22;97798.97;;;-1.30;89.07
30618;BME280;17384;51.214;9.202;2024-01-16T07:34:48;97799.66;;;-1.28;89.21
30618;BME280;17384;51.214;9.202;2024-01-16T07:37:13;97805.97;;;-1.29;89.12
30618;BME280;17384;51.214;9.202;2024-01-16T07:39:41;97799.81;;;-1.30;89.35
30618;BME280;17384;51.214;9.202;2024-01-16T07:42:06;97807.78;;;-1.30;89.62
30618;BME280;17384;51.214;9.202;2024-01-16T07:44:33;97795.31;;;-1.29;89.53
30618;BME280;17384;51.214;9.202;2024-01-16T07:46:58;97806.31;;;-1.24;89.74
30618;BME280;17384;51.214;9.202;2024-01-16T07:49:24;97808.81;;;-1.23;89.72
30618;BME280;17384;51.214;9.202;2024-01-16T07:51:49;97801.81;;;-1.16;89.77
30618;BME280;17384;51.214;9.202;2024-01-16T07:54:15;97809.66;;;-1.14;89.48
30618;BME280;17384;51.214;9.202;2024-01-16T07:56:40;97802.16;;;-1.11;89.75
30618;BME280;17384;51.214;9.202;2024-01-16T07:59:06;97798.84;;;-1.13;89.74
30618;BME280;17384;51.214;9.202;2024-01-16T08:01:32;97813.28;;;-1.07;89.50
30618;BME280;17384;51.214;9.202;2024-01-16T08:03:57;97799.81;;;-1.06;89.52
30618;BME280;17384;51.214;9.202;2024-01-16T08:06:23;97803.13;;;-1.04;89.52
30618;BME280;17384;51.214;9.202;2024-01-16T08:08:49;97812.13;;;-1.05;89.43
30618;BME280;17384;51.214;9.202;2024-01-16T08:11:15;97811.28;;;-0.97;89.42
30618;BME280;17384;51.214;9.202;2024-01-16T08:13:41;97806.47;;;-0.93;89.31
30618;BME280;17384;51.214;9.202;2024-01-16T08:16:07;97808.28;;;-1.02;89.41
30618;BME280;17384;51.214;9.202;2024-01-16T08:18:33;97813.28;;;-0.99;89.46
30618;BME280;17384;51.214;9.202;2024-01-16T08:20:59;97810.47;;;-0.89;89.54
30618;BME280;17384;51.214;9.202;2024-01-16T08:23:24;97808.81;;;-0.90;89.30
30618;BME280;17384;51.214;9.202;2024-01-16T08:25:50;97815.97;;;-0.91;89.22
30618;BME280;17384;51.214;9.202;2024-01-16T08:28:17;97813.94;;;-0.73;88.76
30618;BME280;17384;51.214;9.202;2024-01-16T08:30:43;97819.41;;;-0.66;88.57
30618;BME280;17384;51.214;9.202;2024-01-16T08:33:08;97821.09;;;-0.73;88.24
30618;BME280;17384;51.214;9.202;2024-01-16T08:35:34;97812.75;;;-0.62;87.34
30618;BME280;17384;51.214;9.202;2024-01-16T08:37:59;97823.41;;;-0.62;87.05
30618;BME280;17384;51.214;9.202;2024-01-16T08:40:24;97812.72;;;-0.54;87.34
30618;BME280;17384;51.214;9.202;2024-01-16T08:42:50;97811.38;;;-0.50;86.70
30618;BME280;17384;51.214;9.202;2024-01-16T08:45:23;97821.69;;;-0.47;86.67
30618;BME280;17384;51.214;9.202;2024-01-16T08:47:48;97815.69;;;-0.41;87.05
30618;BME280;17384;51.214;9.202;2024-01-16T08:50:15;97824.19;;;-0.45;86.95
30618;BME280;17384;51.214;9.202;2024-01-16T08:52:40;97829.69;;;-0.39;86.91
30618;BME280;17384;51.214;9.202;2024-01-16T08:55:07;97827.03;;;-0.39;86.73
30618;BME280;17384;51.214;9.202;2024-01-16T08:57:34;97824.69;;;-0.42;86.02
30618;BME280;17384;51.214;9.202;2024-01-16T09:00:00;97813.88;;;-0.48;85.67
30618;BME280;17384;51.214;9.202;2024-01-16T09:02:25;97827.47;;;-0.27;85.46
30618;BME280;17384;51.214;9.202;2024-01-16T09:04:54;97825.78;;;-0.20;85.33
30618;BME280;17384;51.214;9.202;2024-01-16T09:07:20;97826.28;;;-0.24;85.78
30618;BME280;17384;51.214;9.202;2024-01-16T09:09:45;97826.00;;;-0.29;86.00
30618;BME280;17384;51.214;9.202;2024-01-16T09:12:11;97841.44;;;-0.25;86.20
30618;BME280;17384;51.214;9.202;2024-01-16T09:14:37;97825.00;;;-0.28;86.39
30618;BME280;17384;51.214;9.202;2024-01-16T09:17:02;97841.00;;;-0.28;86.96
30618;BME280;17384;51.214;9.202;2024-01-16T09:19:28;97832.34;;;-0.30;87.70
30618;BME280;17384;51.214;9.202;2024-01-16T09:21:55;97833.47;;;-0.25;87.28
30618;BME280;17384;51.214;9.202;2024-01-16T09:24:20;97851.94;;;-0.15;87.04
30618;BME280;17384;51.214;9.202;2024-01-16T09:26:46;97837.59;;;-0.06;86.88
30618;BME280;17384;51.214;9.202;2024-01-16T09:29:12;97856.34;;;0.00;85.56
30618;BME280;17384;51.214;9.202;2024-01-16T09:31:37;97851.91;;;-0.07;85.18
30618;BME280;17384;51.214;9.202;2024-01-16T09:34:04;97854.91;;;-0.02;84.96
30618;BME280;17384;51.214;9.202;2024-01-16T09:36:29;97842.88;;;0.02;84.37
30618;BME280;17384;51.214;9.202;2024-01-16T09:38:55;97851.41;;;-0.03;84.60
30618;BME280;17384;51.214;9.202;2024-01-16T09:41:20;97847.25;;;-0.05;84.07
30618;BME280;17384;51.214;9.202;2024-01-16T09:43:47;97840.69;;;0.06;83.32
30618;BME280;17384;51.214;9.202;2024-01-16T09:46:15;97837.19;;;0.05;83.37
30618;BME280;17384;51.214;9.202;2024-01-16T09:48:41;97845.84;;;0.07;82.95
30618;BME280;17384;51.214;9.202;2024-01-16T09:51:10;97847.25;;;-0.05;83.05
30618;BME280;17384;51.214;9.202;2024-01-16T09:53:40;97842.69;;;0.04;82.87
30618;BME280;17384;51.214;9.202;2024-01-16T09:56:13;97848.50;;;0.15;82.76
30618;BME280;17384;51.214;9.202;2024-01-16T09:58:40;97852.00;;;0.08;82.21
30618;BME280;17384;51.214;9.202;2024-01-16T10:01:06;97846.34;;;0.11;81.96
30618;BME280;17384;51.214;9.202;2024-01-16T10:03:34;97847.41;;;0.32;81.76
30618;BME280;17384;51.214;9.202;2024-01-16T10:06:04;97861.69;;;0.48;80.62
30618;BME280;17384;51.214;9.202;2024-01-16T10:08:31;97857.97;;;0.80;79.77
30618;BME280;17384;51.214;9.202;2024-01-16T10:10:58;97856.06;;;0.88;77.56
30618;BME280;17384;51.214;9.202;2024-01-16T10:13:24;97854.41;;;0.87;77.56
30618;BME280;17384;51.214;9.202;2024-01-16T10:15:53;97869.38;;;0.96;76.77
30618;BME280;17384;51.214;9.202;2024-01-16T10:18:28;97851.22;;;0.92;75.94
30618;BME280;17384;51.214;9.202;2024-01-16T10:20:59;97862.22;;;1.12;75.42
30618;BME280;17384;51.214;9.202;2024-01-16T10:23:29;97863.31;;;1.02;75.01
30618;BME280;17384;51.214;9.202;2024-01-16T10:26:12;97864.16;;;1.03;75.46
30618;BME280;17384;51.214;9.202;2024-01-16T10:28:40;97871.50;;;1.01;75.87
30618;BME280;17384;51.214;9.202;2024-01-16T10:31:10;97861.00;;;0.77;76.60
30618;BME280;17384;51.214;9.202;2024-01-16T10:33:37;97870.75;;;0.61;77.56
30618;BME280;17384;51.214;9.202;2024-01-16T10:36:16;97862.22;;;0.66;77.67
30618;BME280;17384;51.214;9.202;2024-01-16T10:38:44;97872.91;;;0.66;77.60
30618;BME280;17384;51.214;9.202;2024-01-16T10:41:17;97866.25;;;0.62;77.37
30618;BME280;17384;51.214;9.202;2024-01-16T10:43:44;97857.47;;;0.53;77.63
30618;BME280;17384;51.214;9.202;2024-01-16T10:46:14;97849.56;;;0.60;76.88
30618;BME280;17384;51.214;9.202;2024-01-16T10:48:45;97852.97;;;0.54;77.18
30618;BME280;17384;51.214;9.202;2024-01-16T10:51:23;97859.13;;;0.54;77.20
30618;BME280;17384;51.214;9.202;2024-01-16T10:53:49;97854.50;;;0.48;76.97
30618;BME280;17384;51.214;9.202;2024-01-16T10:56:17;97852.88;;;0.70;76.53
30618;BME280;17384;51.214;9.202;2024-01-16T10:58:43;97859.94;;;0.55;77.00
30618;BME280;17384;51.214;9.202;2024-01-16T11:01:11;97850.75;;;0.57;77.08
30618;BME280;17384;51.214;9.202;2024-01-16T11:06:08;97861.88;;;0.69;76.75
30618;BME280;17384;51.214;9.202;2024-01-16T11:08:36;97860.00;;;0.78;77.57
30618;BME280;17384;51.214;9.202;2024-01-16T11:11:04;97855.84;;;0.75;77.79
30618;BME280;17384;51.214;9.202;2024-01-16T11:13:34;97861.97;;;1.07;77.06
30618;BME280;17384;51.214;9.202;2024-01-16T11:16:03;97853.41;;;0.88;77.24
30618;BME280;17384;51.214;9.202;2024-01-16T11:18:33;97859.38;;;1.13;76.16
30618;BME280;17384;51.214;9.202;2024-01-16T11:21:02;97846.03;;;1.36;76.06
30618;BME280;17384;51.214;9.202;2024-01-16T11:25:54;97856.63;;;1.44;75.86
30618;BME280;17384;51.214;9.202;2024-01-16T11:28:20;97847.03;;;1.35;75.54
30618;BME280;17384;51.214;9.202;2024-01-16T11:30:45;97838.03;;;1.65;75.25
30618;BME280;17384;51.214;9.202;2024-01-16T11:33:47;97843.38;;;1.95;74.03
30618;BME280;17384;51.214;9.202;2024-01-16T11:39:23;97832.75;;;1.43;74.19
30618;BME280;17384;51.214;9.202;2024-01-16T11:41:59;97830.78;;;1.22;75.96
30618;BME280;17384;51.214;9.202;2024-01-16T11:49:41;97818.28;;;0.77;78.55
30618;BME280;17384;51.214;9.202;2024-01-16T11:52:06;97834.47;;;0.75;78.89
30618;BME280;17384;51.214;9.202;2024-01-16T11:54:33;97820.88;;;0.85;79.31
30618;BME280;17384;51.214;9.202;2024-01-16T11:59:58;97814.38;;;1.25;78.13
30618;BME280;17384;51.214;9.202;2024-01-16T12:02:42;97837.13;;;1.58;77.16
30618;BME280;17384;51.214;9.202;2024-01-16T12:05:12;97824.97;;;1.85;76.51
30618;BME280;17384;51.214;9.202;2024-01-16T12:07:44;97822.19;;;1.79;76.27
30618;BME280;17384;51.214;9.202;2024-01-16T12:10:10;97819.41;;;2.16;75.44
30618;BME280;17384;51.214;9.202;2024-01-16T12:12:36;97824.31;;;2.13;74.85
30618;BME280;17384;51.214;9.202;2024-01-16T12:15:01;97823.25;;;2.28;74.25
30618;BME280;17384;51.214;9.202;2024-01-16T12:17:27;97812.84;;;2.55;73.88
30618;BME280;17384;51.214;9.202;2024-01-16T12:19:52;97822.50;;;2.34;73.01
30618;BME280;17384;51.214;9.202;2024-01-16T12:22:19;97823.47;;;2.48;73.21
30618;BME280;17384;51.214;9.202;2024-01-16T12:24:48;97806.63;;;2.69;71.03
30618;BME280;17384;51.214;9.202;2024-01-16T12:27:14;97808.34;;;2.55;72.10
30618;BME280;17384;51.214;9.202;2024-01-16T12:29:41;97801.19;;;2.41;72.25
30618;BME280;17384;51.214;9.202;2024-01-16T12:32:11;97807.25;;;1.99;73.07
30618;BME280;17384;51.214;9.202;2024-01-16T12:34:47;97805.13;;;1.80;72.63
30618;BME280;17384;51.214;9.202;2024-01-16T12:37:13;97789.00;;;1.58;72.13
30618;BME280;17384;51.214;9.202;2024-01-16T12:39:40;97806.31;;;1.33;71.21
30618;BME280;17384;51.214;9.202;2024-01-16T12:42:08;97808.00;;;0.88;72.28
30618;BME280;17384;51.214;9.202;2024-01-16T12:44:35;97803.63;;;0.73;71.50
30618;BME280;17384;51.214;9.202;2024-01-16T12:47:01;97804.66;;;0.72;70.22
30618;BME280;17384;51.214;9.202;2024-01-16T12:49:27;97803.50;;;0.66;71.58
30618;BME280;17384;51.214;9.202;2024-01-16T12:52:21;97802.31;;;0.91;70.12
30618;BME280;17384;51.214;9.202;2024-01-16T12:54:58;97799.69;;;0.83;70.05
30618;BME280;17384;51.214;9.202;2024-01-16T12:57:26;97790.41;;;0.79;70.19
30618;BME280;17384;51.214;9.202;2024-01-16T12:59:51;97774.19;;;0.58;70.67
30618;BME280;17384;51.214;9.202;2024-01-16T13:02:24;97774.63;;;0.70;70.78
30618;BME280;17384;51.214;9.202;2024-01-16T13:04:58;97760.81;;;0.66;72.15
30618;BME280;17384;51.214;9.202;2024-01-16T13:07:25;97753.13;;;0.86;69.77
30618;BME280;17384;51.214;9.202;2024-01-16T13:10:06;97748.59;;;0.72;69.23
30618;BME280;17384;51.214;9.202;2024-01-16T13:12:32;97749.13;;;0.67;68.32
30618;BME280;17384;51.214;9.202;2024-01-16T13:14:59;97735.28;;;0.86;67.38
30618;BME280;17384;51.214;9.202;2024-01-16T13:17:24;97754.59;;;0.88;67.22